KTOA/TOA METAR and TAF weather

Enter ICAO airport designator
Station Type Date Time Source
KTOA METAR 2019/12/05 22:47 UTC NOAA

KTOA 052247Z 00000KT 10SM SCT018 BKN120 18/12 A3009


Station Type Date Time Source
KTOA Decoded METAR 2019/12/05 22:47 UTC NOAA

Torrance, Zamperini Field Airport, CA, United States (KTOA) 33-48N 118-20W
Dec 05, 2019 - 05:47 PM EST / 2019.12.05 2247 UTC
Wind: Calm:0
Visibility: 10 mile(s):0
Sky conditions: mostly cloudy
Temperature: 64 F (18 C)
Dew Point: 53 F (12 C)
Relative Humidity: 67%
Pressure (altimeter): 30.09 in. Hg (1018 hPa)
ob: KTOA 052247Z 00000KT 10SM SCT018 BKN120 18/12 A3009
cycle: 23

Station Type Date Time Source
KTOA TAF UTC NOAA

Error!

Example: see airport list